createdAt,value
2023-03-05T00:01:25.764Z,59.02
2023-03-05T00:03:53.654Z,58.91
2023-03-05T00:06:21.281Z,59.08
2023-03-05T00:08:48.833Z,59.22
2023-03-05T00:11:15.532Z,59.17
2023-03-05T00:13:42.114Z,59.24
2023-03-05T00:16:11.096Z,59.31
2023-03-05T00:18:38.118Z,59.37
2023-03-05T00:21:05.542Z,59.43
2023-03-05T00:23:32.157Z,59.43
2023-03-05T00:26:02.016Z,59.49
2023-03-05T00:28:28.624Z,59.43
2023-03-05T00:30:55.237Z,59.31
2023-03-05T00:33:21.887Z,59.45
2023-03-05T00:35:48.536Z,59.45
2023-03-05T00:38:15.689Z,59.43
2023-03-05T00:40:42.283Z,59.42
2023-03-05T00:43:09.362Z,59.43
2023-03-05T00:45:36.126Z,59.60
2023-03-05T00:48:03.497Z,59.50
2023-03-05T00:50:30.154Z,59.45
2023-03-05T00:52:56.848Z,59.28
2023-03-05T00:55:23.501Z,59.36
2023-03-05T00:57:50.092Z,59.46
2023-03-05T01:00:16.897Z,59.28
2023-03-05T01:02:43.552Z,59.22
2023-03-05T01:05:13.529Z,59.33
2023-03-05T01:07:40.266Z,59.48
2023-03-05T01:10:07.338Z,59.19
2023-03-05T01:12:33.897Z,59.39
2023-03-05T01:15:00.503Z,59.41
2023-03-05T01:17:27.303Z,59.19
2023-03-05T01:19:53.890Z,59.21
2023-03-05T01:22:20.649Z,59.54
2023-03-05T01:24:47.221Z,59.56
2023-03-05T01:27:13.922Z,59.52
2023-03-05T01:29:40.650Z,59.76
2023-03-05T01:32:07.311Z,59.49
2023-03-05T01:34:33.995Z,59.72
2023-03-05T01:37:00.690Z,59.69
2023-03-05T01:39:27.303Z,59.70
2023-03-05T01:41:53.922Z,59.70
2023-03-05T01:44:25.462Z,59.52
2023-03-05T01:46:52.358Z,59.54
2023-03-05T01:49:33.161Z,59.63
2023-03-05T01:52:09.035Z,59.62
2023-03-05T01:54:57.451Z,59.54
2023-03-05T01:57:30.532Z,59.60
2023-03-05T01:59:59.658Z,59.46
2023-03-05T02:02:26.263Z,59.37
2023-03-05T02:05:01.223Z,59.36
2023-03-05T02:07:28.107Z,59.33
2023-03-05T02:09:54.680Z,59.39
2023-03-05T02:12:21.649Z,59.36
2023-03-05T02:14:49.522Z,59.39
2023-03-05T02:17:16.161Z,59.35
2023-03-05T02:19:53.884Z,59.34
2023-03-05T02:22:21.022Z,59.40
2023-03-05T02:24:47.685Z,59.22
2023-03-05T02:27:14.461Z,59.26
2023-03-05T02:29:43.790Z,59.31
2023-03-05T02:32:10.973Z,59.32
2023-03-05T02:34:37.725Z,59.43
2023-03-05T02:37:04.842Z,59.40
2023-03-05T02:39:31.990Z,59.53
2023-03-05T02:41:58.608Z,59.40
2023-03-05T02:44:26.086Z,59.09
2023-03-05T02:46:52.786Z,58.95
2023-03-05T02:49:19.497Z,59.12
2023-03-05T02:51:46.122Z,59.05
2023-03-05T02:54:12.854Z,59.10
2023-03-05T02:56:39.985Z,59.09
2023-03-05T02:59:06.597Z,59.15
2023-03-05T03:01:33.309Z,59.23
2023-03-05T03:04:00.089Z,59.37
2023-03-05T03:06:26.739Z,59.56
2023-03-05T03:08:53.327Z,59.59
2023-03-05T03:11:21.518Z,59.52
2023-03-05T03:13:48.189Z,59.60
2023-03-05T03:16:15.340Z,59.57
2023-03-05T03:18:42.201Z,59.54
2023-03-05T03:21:08.926Z,59.55
2023-03-05T03:23:35.587Z,59.75
2023-03-05T03:26:02.355Z,59.82
2023-03-05T03:28:28.947Z,60.01
2023-03-05T03:30:55.587Z,59.82
2023-03-05T03:33:22.481Z,59.68
2023-03-05T03:35:49.110Z,59.80
2023-03-05T03:38:15.750Z,59.84
2023-03-05T03:40:42.453Z,59.81
2023-03-05T03:43:09.118Z,59.84
2023-03-05T03:45:35.714Z,59.95
2023-03-05T03:48:02.986Z,59.85
2023-03-05T03:50:29.614Z,59.83
2023-03-05T03:52:56.293Z,60.00
2023-03-05T03:55:22.940Z,59.95
2023-03-05T03:57:49.578Z,60.00
2023-03-05T04:00:17.493Z,59.94
2023-03-05T04:02:44.305Z,60.16
2023-03-05T04:05:11.120Z,60.13
2023-03-05T04:07:37.686Z,60.40
2023-03-05T04:10:04.589Z,60.32
2023-03-05T04:12:31.193Z,60.41
2023-03-05T04:14:57.807Z,60.37
2023-03-05T04:17:24.464Z,60.38
2023-03-05T04:19:51.155Z,60.49
2023-03-05T04:22:18.011Z,60.50
2023-03-05T04:24:44.643Z,60.66
2023-03-05T04:27:11.423Z,60.67
2023-03-05T04:29:38.782Z,60.82
2023-03-05T04:32:06.102Z,60.85
2023-03-05T04:34:33.376Z,60.96
2023-03-05T04:37:00.018Z,60.91
2023-03-05T04:39:26.754Z,60.82
2023-03-05T04:41:53.337Z,60.98
2023-03-05T04:44:20.029Z,60.96
2023-03-05T04:46:46.669Z,61.10
2023-03-05T04:49:13.290Z,61.31
2023-03-05T04:51:40.373Z,61.26
2023-03-05T04:54:06.897Z,61.28
2023-03-05T04:56:33.945Z,61.36
2023-03-05T04:59:00.579Z,61.37
2023-03-05T05:01:27.331Z,61.38
2023-03-05T05:03:54.011Z,61.47
2023-03-05T05:06:20.641Z,61.55
2023-03-05T05:08:47.247Z,61.62
2023-03-05T05:11:14.269Z,61.61
2023-03-05T05:13:40.860Z,61.48
2023-03-05T05:16:07.897Z,61.48
2023-03-05T05:18:34.810Z,61.57
2023-03-05T05:21:01.427Z,61.73
2023-03-05T05:23:28.089Z,61.83
2023-03-05T05:26:01.497Z,61.89
2023-03-05T05:28:28.418Z,61.82
2023-03-05T05:30:55.033Z,62.07
2023-03-05T05:33:22.264Z,62.26
2023-03-05T05:35:48.982Z,62.18
2023-03-05T05:38:15.593Z,62.15
2023-03-05T05:40:42.244Z,62.40
2023-03-05T05:43:08.944Z,62.33
2023-03-05T05:45:38.273Z,62.36
2023-03-05T05:48:04.996Z,62.46
2023-03-05T05:50:31.578Z,62.63
2023-03-05T05:52:58.212Z,62.63
2023-03-05T05:55:24.828Z,62.57
2023-03-05T05:57:51.445Z,62.60
2023-03-05T06:00:18.496Z,62.76
2023-03-05T06:02:45.106Z,62.71
2023-03-05T06:05:12.520Z,63.01
2023-03-05T06:07:39.173Z,62.92
2023-03-05T06:10:06.947Z,63.09
2023-03-05T06:12:33.555Z,63.15
2023-03-05T06:15:00.205Z,63.07
2023-03-05T06:17:30.733Z,63.41
2023-03-05T06:19:58.446Z,63.43
2023-03-05T06:22:25.252Z,63.38
2023-03-05T06:24:51.839Z,63.53
2023-03-05T06:27:18.469Z,63.61
2023-03-05T06:29:45.039Z,63.90
2023-03-05T06:32:11.680Z,63.91
2023-03-05T06:34:38.268Z,64.08
2023-03-05T06:37:04.925Z,64.19
2023-03-05T06:39:31.697Z,64.23
2023-03-05T06:41:58.337Z,64.18
2023-03-05T06:44:25.851Z,64.20
2023-03-05T06:46:52.670Z,64.33
2023-03-05T06:49:19.300Z,64.27
2023-03-05T06:51:45.922Z,64.42
2023-03-05T06:54:14.084Z,64.55
2023-03-05T06:56:42.106Z,64.58
2023-03-05T06:59:09.019Z,64.44
2023-03-05T07:01:35.799Z,64.40
2023-03-05T07:04:03.367Z,64.53
2023-03-05T07:06:32.320Z,64.46
2023-03-05T07:08:59.118Z,64.46
2023-03-05T07:11:25.693Z,64.35
2023-03-05T07:13:52.452Z,64.39
2023-03-05T07:16:30.122Z,64.24
2023-03-05T07:18:57.138Z,64.15
2023-03-05T07:21:25.916Z,64.18
2023-03-05T07:23:56.616Z,63.98
2023-03-05T07:26:23.324Z,63.96
2023-03-05T07:28:50.012Z,64.07
2023-03-05T07:31:21.835Z,64.18
2023-03-05T07:33:49.487Z,64.04
2023-03-05T07:36:16.751Z,64.08
2023-03-05T07:38:43.421Z,64.27
2023-03-05T07:41:11.963Z,64.03
2023-03-05T07:43:38.695Z,63.99
2023-03-05T07:46:09.900Z,63.84
2023-03-05T07:48:36.562Z,63.86
2023-03-05T07:51:04.577Z,63.84
2023-03-05T07:53:31.210Z,63.88
2023-03-05T07:55:57.912Z,64.07
2023-03-05T07:58:24.620Z,64.08
2023-03-05T08:00:51.776Z,63.93
2023-03-05T08:03:18.431Z,64.07
2023-03-05T08:05:47.228Z,64.20
2023-03-05T08:08:13.815Z,64.13
2023-03-05T08:10:40.545Z,64.21
2023-03-05T08:13:07.182Z,64.23
2023-03-05T08:15:33.909Z,64.14
2023-03-05T08:18:00.689Z,64.22
2023-03-05T08:20:27.278Z,64.25
2023-03-05T08:22:53.909Z,64.25
2023-03-05T08:25:20.522Z,64.17
2023-03-05T08:27:47.491Z,64.42
2023-03-05T08:30:16.771Z,64.23
2023-03-05T08:32:43.394Z,64.37
2023-03-05T08:35:10.023Z,64.62
2023-03-05T08:37:36.803Z,64.25
2023-03-05T08:40:05.220Z,64.36
2023-03-05T08:42:31.892Z,64.65
2023-03-05T08:44:58.621Z,64.83
2023-03-05T08:47:26.707Z,65.00
2023-03-05T08:49:57.368Z,64.85
2023-03-05T08:52:24.142Z,65.07
2023-03-05T08:54:50.816Z,65.29
2023-03-05T08:57:17.472Z,65.61
2023-03-05T08:59:44.041Z,65.34
2023-03-05T09:02:14.613Z,65.72
2023-03-05T09:04:41.293Z,65.68
2023-03-05T09:07:07.920Z,65.64
2023-03-05T09:09:34.679Z,65.79
2023-03-05T09:12:01.393Z,65.54
2023-03-05T09:14:28.753Z,65.89
2023-03-05T09:16:56.626Z,65.98
2023-03-05T09:19:23.388Z,66.16
2023-03-05T09:21:50.024Z,66.23
2023-03-05T09:24:16.617Z,66.17
2023-03-05T09:26:44.273Z,66.40
2023-03-05T09:29:11.003Z,66.50
2023-03-05T09:31:38.797Z,66.75
2023-03-05T09:34:06.080Z,66.66
2023-03-05T09:36:32.873Z,66.58
2023-03-05T09:38:59.551Z,66.94
2023-03-05T09:41:54.418Z,67.02
2023-03-05T09:44:58.830Z,66.69
2023-03-05T09:48:04.966Z,67.27
2023-03-05T09:50:40.757Z,67.21
2023-03-05T09:53:43.480Z,67.44
2023-03-05T09:56:15.799Z,67.30
2023-03-05T09:58:42.942Z,67.62
2023-03-05T10:01:30.017Z,67.77
2023-03-05T10:04:04.739Z,67.93
2023-03-05T10:07:00.786Z,67.75
2023-03-05T10:09:58.454Z,67.82
2023-03-05T10:12:44.313Z,67.73
2023-03-05T10:15:20.144Z,68.09
2023-03-05T10:17:59.131Z,68.35
2023-03-05T10:20:47.605Z,68.27
2023-03-05T10:23:32.085Z,68.30
2023-03-05T10:26:17.715Z,68.23
2023-03-05T10:29:05.642Z,68.28
2023-03-05T10:31:44.491Z,68.41
2023-03-05T10:34:23.923Z,68.38
2023-03-05T10:37:16.598Z,68.33
2023-03-05T10:39:48.310Z,68.46
2023-03-05T10:42:20.509Z,68.59
2023-03-05T10:44:58.118Z,68.59
2023-03-05T10:47:42.958Z,68.68
2023-03-05T10:50:17.229Z,68.44
2023-03-05T10:52:46.797Z,68.85
2023-03-05T10:55:21.558Z,68.73
2023-03-05T10:57:48.426Z,68.66
2023-03-05T11:00:34.689Z,68.80
2023-03-05T11:03:08.922Z,68.92
2023-03-05T11:05:39.159Z,68.62
2023-03-05T11:08:23.501Z,68.82
2023-03-05T11:11:16.478Z,68.83
2023-03-05T11:13:59.826Z,69.08
2023-03-05T11:16:28.222Z,69.22
2023-03-05T11:19:18.656Z,68.91
2023-03-05T11:21:46.510Z,69.03
2023-03-05T11:24:14.123Z,68.95
2023-03-05T11:26:51.559Z,69.12
2023-03-05T11:29:19.626Z,69.39
2023-03-05T11:31:46.262Z,69.70
2023-03-05T11:34:18.907Z,69.36
2023-03-05T11:36:53.175Z,69.29
2023-03-05T11:39:23.266Z,69.59
2023-03-05T11:41:54.860Z,69.22
2023-03-05T11:44:23.418Z,69.69
2023-03-05T11:46:56.369Z,69.72
2023-03-05T11:49:28.272Z,69.70
2023-03-05T11:52:10.796Z,69.61
2023-03-05T11:54:48.162Z,69.76
2023-03-05T11:57:15.345Z,70.01
2023-03-05T11:59:42.022Z,70.28
2023-03-05T12:02:20.460Z,70.17
2023-03-05T12:04:47.082Z,70.19
2023-03-05T12:07:15.734Z,69.99
2023-03-05T12:09:51.765Z,70.26
2023-03-05T12:12:18.473Z,70.39
2023-03-05T12:14:52.136Z,70.62
2023-03-05T12:17:24.422Z,70.65
2023-03-05T12:19:55.540Z,70.58
2023-03-05T12:22:26.770Z,70.77
2023-03-05T12:24:53.518Z,70.95
2023-03-05T12:27:37.005Z,71.03
2023-03-05T12:30:05.265Z,71.06
2023-03-05T12:32:31.981Z,71.26
2023-03-05T12:35:04.527Z,71.21
2023-03-05T12:37:31.922Z,71.50
2023-03-05T12:40:17.802Z,71.64
2023-03-05T12:42:50.304Z,71.88
2023-03-05T12:45:16.956Z,71.96
2023-03-05T12:47:45.250Z,72.14
2023-03-05T12:50:27.804Z,72.19
2023-03-05T12:52:58.855Z,72.16
2023-03-05T12:55:47.597Z,72.35
2023-03-05T12:58:29.397Z,72.54
2023-03-05T13:01:02.033Z,72.36
2023-03-05T13:03:34.223Z,72.63
2023-03-05T13:06:01.234Z,72.62
2023-03-05T13:08:32.387Z,72.61
2023-03-05T13:11:06.892Z,72.74
2023-03-05T13:13:36.329Z,72.78
2023-03-05T13:16:03.622Z,72.68
2023-03-05T13:18:32.764Z,72.68
2023-03-05T13:21:06.593Z,72.73
2023-03-05T13:23:34.212Z,72.91
2023-03-05T13:26:18.651Z,72.90
2023-03-05T13:29:18.429Z,72.24
2023-03-05T13:31:46.786Z,72.21
2023-03-05T13:34:37.401Z,72.10
2023-03-05T13:37:19.264Z,71.80
2023-03-05T13:39:50.840Z,71.92
2023-03-05T13:42:23.375Z,71.93
2023-03-05T13:44:57.984Z,71.99
2023-03-05T13:47:28.629Z,72.02
2023-03-05T13:50:00.196Z,72.00
2023-03-05T13:52:31.774Z,72.06
2023-03-05T13:55:01.951Z,72.05
2023-03-05T13:57:51.190Z,72.53
2023-03-05T14:00:37.025Z,72.26
2023-03-05T14:03:10.457Z,72.85
2023-03-05T14:05:37.315Z,72.44
2023-03-05T14:08:04.063Z,72.47
2023-03-05T14:10:36.350Z,72.54
2023-03-05T14:13:13.657Z,72.87
2023-03-05T14:15:40.606Z,72.54
2023-03-05T14:18:13.360Z,72.55
2023-03-05T14:20:41.612Z,72.48
2023-03-05T14:23:48.002Z,72.59
2023-03-05T14:26:33.660Z,72.36
2023-03-05T14:29:04.478Z,72.13
2023-03-05T14:31:33.325Z,71.92
2023-03-05T14:34:02.094Z,72.00
2023-03-05T14:36:29.585Z,72.25
2023-03-05T14:39:00.866Z,71.90
2023-03-05T14:41:41.136Z,71.67
2023-03-05T14:47:24.641Z,71.52
2023-03-05T14:49:51.334Z,71.25
2023-03-05T14:52:19.591Z,71.51
2023-03-05T14:54:46.406Z,71.32
2023-03-05T14:57:21.844Z,71.18
2023-03-05T14:59:48.658Z,71.18
2023-03-05T15:02:20.205Z,71.83
2023-03-05T15:04:46.975Z,71.90
2023-03-05T15:07:25.594Z,71.76
2023-03-05T15:09:54.106Z,72.24
2023-03-05T15:12:25.907Z,72.47
2023-03-05T15:14:53.442Z,72.63
2023-03-05T15:17:23.930Z,72.77
2023-03-05T15:19:50.675Z,72.99
2023-03-05T15:22:17.772Z,73.24
2023-03-05T15:24:44.378Z,73.11
2023-03-05T15:27:11.341Z,73.21
2023-03-05T15:29:38.029Z,73.48
2023-03-05T15:32:05.660Z,73.43
2023-03-05T15:34:33.853Z,73.34
2023-03-05T15:37:01.680Z,73.30
2023-03-05T15:39:28.446Z,73.41
2023-03-05T15:41:55.344Z,73.31
2023-03-05T15:44:22.212Z,73.16
2023-03-05T15:46:48.845Z,73.21
2023-03-05T15:49:15.451Z,73.33
2023-03-05T15:51:45.392Z,73.25
2023-03-05T15:54:12.029Z,73.27
2023-03-05T15:56:39.617Z,73.48
2023-03-05T15:59:06.326Z,73.15
2023-03-05T16:01:33.126Z,72.91
2023-03-05T16:04:04.405Z,72.83
2023-03-05T16:06:31.435Z,72.77
2023-03-05T16:09:03.612Z,72.96
2023-03-05T16:11:31.700Z,72.74
2023-03-05T16:13:58.472Z,72.70
2023-03-05T16:16:25.499Z,72.74
2023-03-05T16:18:53.631Z,72.67
2023-03-05T16:21:20.277Z,72.60
2023-03-05T16:23:46.920Z,72.71
2023-03-05T16:26:13.615Z,72.78
2023-03-05T16:28:40.205Z,72.52
2023-03-05T16:31:06.923Z,72.51
2023-03-05T16:33:33.598Z,72.37
2023-03-05T16:36:20.895Z,72.43
2023-03-05T16:38:48.983Z,72.40
2023-03-05T16:41:16.387Z,72.46
2023-03-05T16:46:54.804Z,72.54
2023-03-05T16:49:21.512Z,72.62
2023-03-05T16:51:48.403Z,72.53
2023-03-05T16:54:15.149Z,72.60
2023-03-05T16:56:41.860Z,72.60
2023-03-05T16:59:08.587Z,72.65
2023-03-05T17:01:35.187Z,72.77
2023-03-05T17:04:02.319Z,72.71
2023-03-05T17:06:30.209Z,72.70
2023-03-05T17:08:57.246Z,72.72
2023-03-05T17:11:25.725Z,72.84
2023-03-05T17:13:52.533Z,72.90
2023-03-05T17:16:19.701Z,72.90
2023-03-05T17:18:47.160Z,72.62
2023-03-05T17:21:13.987Z,72.73
2023-03-05T17:23:40.960Z,72.74
2023-03-05T17:26:09.709Z,72.70
2023-03-05T17:28:36.831Z,72.82
2023-03-05T17:31:04.053Z,72.57
2023-03-05T17:36:17.381Z,72.73
2023-03-05T17:38:44.369Z,72.66
2023-03-05T17:41:11.252Z,72.42
2023-03-05T17:43:42.891Z,72.63
2023-03-05T17:46:17.942Z,72.71
2023-03-05T17:48:44.574Z,72.38
2023-03-05T17:51:12.494Z,72.64
2023-03-05T17:53:40.394Z,72.76
2023-03-05T17:56:10.760Z,72.57
2023-03-05T17:58:37.726Z,72.60
2023-03-05T18:01:04.704Z,72.32
2023-03-05T18:03:31.362Z,72.40
2023-03-05T18:05:58.127Z,72.78
2023-03-05T18:08:24.794Z,72.81
2023-03-05T18:10:51.462Z,72.84
2023-03-05T18:13:18.118Z,72.71
2023-03-05T18:15:47.850Z,72.67
2023-03-05T18:18:15.902Z,72.63
2023-03-05T18:20:42.783Z,72.54
2023-03-05T18:23:09.484Z,72.50
2023-03-05T18:25:36.086Z,72.56
2023-03-05T18:28:10.346Z,72.61
2023-03-05T18:30:37.166Z,72.79
2023-03-05T18:33:04.458Z,72.87
2023-03-05T18:35:31.664Z,72.94
2023-03-05T18:37:58.383Z,72.96
2023-03-05T18:40:26.388Z,72.95
2023-03-05T18:42:53.015Z,72.95
2023-03-05T18:45:20.453Z,73.08
2023-03-05T18:47:48.015Z,72.96
2023-03-05T18:50:16.986Z,72.76
2023-03-05T18:52:53.982Z,72.54
2023-03-05T18:55:23.383Z,72.73
2023-03-05T18:57:50.787Z,72.80
2023-03-05T19:00:19.432Z,72.73
2023-03-05T19:02:46.267Z,72.56
2023-03-05T19:05:13.924Z,72.28
2023-03-05T19:07:40.640Z,72.10
2023-03-05T19:10:09.966Z,72.14
2023-03-05T19:12:45.388Z,72.27
2023-03-05T19:15:13.049Z,72.43
2023-03-05T19:17:39.751Z,72.46
2023-03-05T19:20:07.901Z,72.38
2023-03-05T19:22:34.725Z,72.33
2023-03-05T19:25:01.813Z,72.36
2023-03-05T19:27:28.429Z,72.40
2023-03-05T19:29:55.182Z,72.38
2023-03-05T19:32:22.028Z,72.34
2023-03-05T19:34:48.793Z,72.36
2023-03-05T19:37:15.772Z,72.36
2023-03-05T19:39:42.565Z,72.34
2023-03-05T19:42:09.669Z,72.28
2023-03-05T19:44:36.240Z,72.31
2023-03-05T19:47:03.187Z,72.19
2023-03-05T19:49:29.957Z,72.06
2023-03-05T19:51:56.592Z,71.89
2023-03-05T19:54:23.681Z,71.99
2023-03-05T19:56:51.816Z,71.90
2023-03-05T19:59:21.203Z,71.82
2023-03-05T20:01:48.704Z,71.81
2023-03-05T20:04:20.196Z,71.78
2023-03-05T20:06:47.028Z,71.82
2023-03-05T20:09:14.392Z,71.86
2023-03-05T20:11:41.055Z,71.79
2023-03-05T20:14:07.981Z,71.60
2023-03-05T20:16:36.142Z,71.66
2023-03-05T20:19:03.645Z,71.70
2023-03-05T20:21:33.092Z,71.72
2023-03-05T20:24:02.457Z,71.59
2023-03-05T20:26:29.414Z,71.76
2023-03-05T20:28:56.273Z,71.72
2023-03-05T20:31:24.138Z,71.72
2023-03-05T20:33:51.064Z,71.41
2023-03-05T20:36:17.788Z,71.33
2023-03-05T20:38:45.892Z,71.44
2023-03-05T20:41:15.207Z,71.64
2023-03-05T20:43:44.830Z,71.47
2023-03-05T20:46:21.658Z,71.51
2023-03-05T20:48:49.536Z,71.45
2023-03-05T20:51:22.758Z,71.50
2023-03-05T20:53:50.935Z,71.76
2023-03-05T20:56:17.673Z,71.62
2023-03-05T20:58:44.302Z,71.68
2023-03-05T21:01:10.960Z,71.68
2023-03-05T21:03:38.870Z,71.68
2023-03-05T21:06:06.396Z,71.69
2023-03-05T21:08:35.791Z,71.55
2023-03-05T21:11:07.275Z,71.46
2023-03-05T21:13:34.158Z,71.19
2023-03-05T21:16:01.026Z,71.16
2023-03-05T21:18:31.229Z,71.21
2023-03-05T21:20:57.893Z,71.08
2023-03-05T21:23:25.542Z,71.04
2023-03-05T21:25:52.396Z,71.13
2023-03-05T21:28:19.319Z,71.24
2023-03-05T21:30:48.593Z,71.21
2023-03-05T21:33:21.028Z,71.05
2023-03-05T21:35:48.300Z,71.17
2023-03-05T21:38:15.439Z,71.13
2023-03-05T21:40:45.453Z,71.33
2023-03-05T21:43:13.034Z,71.33
2023-03-05T21:45:40.204Z,71.55
2023-03-05T21:48:07.496Z,71.48
2023-03-05T21:50:34.499Z,71.57
2023-03-05T21:53:02.092Z,71.72
2023-03-05T21:55:35.126Z,71.52
2023-03-05T21:58:02.483Z,71.62
2023-03-05T22:00:29.371Z,71.44
2023-03-05T22:02:56.199Z,71.52
2023-03-05T22:05:22.935Z,71.77
2023-03-05T22:07:49.596Z,71.73
2023-03-05T22:10:17.585Z,71.73
2023-03-05T22:13:10.439Z,71.54
2023-03-05T22:15:43.136Z,71.47
2023-03-05T22:18:09.918Z,71.28
2023-03-05T22:20:36.594Z,71.25
2023-03-05T22:23:04.337Z,71.26
2023-03-05T22:25:31.010Z,70.99
2023-03-05T22:27:57.788Z,70.72
2023-03-05T22:30:24.599Z,70.69
2023-03-05T22:32:51.241Z,70.68
2023-03-05T22:35:19.070Z,70.74
2023-03-05T22:37:45.759Z,70.57
2023-03-05T22:40:15.121Z,70.52
2023-03-05T22:42:42.802Z,70.47
2023-03-05T22:45:09.970Z,70.46
2023-03-05T22:47:36.545Z,70.29
2023-03-05T22:50:03.297Z,70.35
2023-03-05T22:52:29.922Z,70.27
2023-03-05T22:54:56.665Z,70.27
2023-03-05T22:57:23.508Z,70.39
2023-03-05T22:59:50.168Z,70.38
2023-03-05T23:02:17.238Z,70.36
2023-03-05T23:04:48.454Z,70.34
2023-03-05T23:07:23.164Z,70.31
2023-03-05T23:09:54.680Z,70.57
2023-03-05T23:12:21.651Z,70.48
2023-03-05T23:14:48.183Z,70.79
2023-03-05T23:17:14.847Z,70.76
2023-03-05T23:19:41.518Z,70.87
2023-03-05T23:22:08.792Z,70.96
2023-03-05T23:24:35.485Z,70.89
2023-03-05T23:27:02.585Z,70.98
2023-03-05T23:29:30.474Z,70.95
2023-03-05T23:31:57.061Z,70.99
2023-03-05T23:34:23.706Z,71.20
2023-03-05T23:36:50.321Z,71.05
2023-03-05T23:39:16.944Z,70.84
2023-03-05T23:41:43.591Z,71.05
2023-03-05T23:44:10.184Z,70.89
2023-03-05T23:46:36.791Z,70.95
2023-03-05T23:49:03.472Z,70.66
2023-03-05T23:51:30.084Z,70.52
2023-03-05T23:53:56.670Z,70.53
2023-03-05T23:56:23.321Z,70.46
2023-03-05T23:58:49.920Z,70.32
